sensor_id;sensor_type;location;lat;lon;timestamp;pressure;altitude;pressure_sealevel;temperature;humidity
9139;BME280;4604;48.616;9.548;2023-02-18T00:00:55;97853.09;;;11.79;87.02
9139;BME280;4604;48.616;9.548;2023-02-18T00:03:23;97889.66;;;11.86;86.62
9139;BME280;4604;48.616;9.548;2023-02-18T00:05:49;97865.94;;;11.84;87.57
9139;BME280;4604;48.616;9.548;2023-02-18T00:08:17;97872.47;;;11.91;86.49
9139;BME280;4604;48.616;9.548;2023-02-18T00:10:44;97869.25;;;11.88;87.51
9139;BME280;4604;48.616;9.548;2023-02-18T00:13:11;97857.91;;;11.86;86.44
9139;BME280;4604;48.616;9.548;2023-02-18T00:15:38;97846.25;;;11.77;87.07
9139;BME280;4604;48.616;9.548;2023-02-18T00:18:05;97823.53;;;11.74;86.36
9139;BME280;4604;48.616;9.548;2023-02-18T00:20:32;97852.25;;;11.79;86.39
9139;BME280;4604;48.616;9.548;2023-02-18T00:23:00;97841.19;;;11.85;86.80
9139;BME280;4604;48.616;9.548;2023-02-18T00:25:28;97834.47;;;11.81;87.52
9139;BME280;4604;48.616;9.548;2023-02-18T00:27:55;97831.34;;;11.87;86.79
9139;BME280;4604;48.616;9.548;2023-02-18T00:30:22;97827.59;;;11.90;86.31
9139;BME280;4604;48.616;9.548;2023-02-18T00:32:48;97820.16;;;11.95;85.70
9139;BME280;4604;48.616;9.548;2023-02-18T00:35:15;97839.50;;;11.84;86.96
9139;BME280;4604;48.616;9.548;2023-02-18T00:37:42;97822.78;;;11.84;86.46
9139;BME280;4604;48.616;9.548;2023-02-18T00:40:09;97812.31;;;11.82;86.75
9139;BME280;4604;48.616;9.548;2023-02-18T00:42:37;97825.56;;;11.82;83.68
9139;BME280;4604;48.616;9.548;2023-02-18T00:45:04;97814.84;;;11.84;84.50
9139;BME280;4604;48.616;9.548;2023-02-18T00:47:31;97825.31;;;11.85;84.82
9139;BME280;4604;48.616;9.548;2023-02-18T00:49:57;97823.63;;;11.95;84.73
9139;BME280;4604;48.616;9.548;2023-02-18T00:52:24;97821.22;;;11.92;83.44
9139;BME280;4604;48.616;9.548;2023-02-18T00:54:50;97831.22;;;11.89;84.23
9139;BME280;4604;48.616;9.548;2023-02-18T00:57:17;97816.41;;;11.97;83.27
9139;BME280;4604;48.616;9.548;2023-02-18T00:59:45;97833.50;;;11.93;84.12
9139;BME280;4604;48.616;9.548;2023-02-18T01:02:11;97823.19;;;11.90;84.05
9139;BME280;4604;48.616;9.548;2023-02-18T01:04:38;97830.00;;;11.82;85.41
9139;BME280;4604;48.616;9.548;2023-02-18T01:07:05;97798.66;;;11.77;85.89
9139;BME280;4604;48.616;9.548;2023-02-18T01:09:31;97794.78;;;11.81;85.78
9139;BME280;4604;48.616;9.548;2023-02-18T01:11:58;97798.00;;;11.85;84.78
9139;BME280;4604;48.616;9.548;2023-02-18T01:14:24;97802.69;;;11.92;83.63
9139;BME280;4604;48.616;9.548;2023-02-18T01:16:52;97806.88;;;12.06;82.68
9139;BME280;4604;48.616;9.548;2023-02-18T01:19:19;97804.59;;;12.02;82.70
9139;BME280;4604;48.616;9.548;2023-02-18T01:21:46;97820.00;;;11.96;82.91
9139;BME280;4604;48.616;9.548;2023-02-18T01:24:12;97827.69;;;11.99;83.04
9139;BME280;4604;48.616;9.548;2023-02-18T01:26:39;97821.44;;;12.01;83.39
9139;BME280;4604;48.616;9.548;2023-02-18T01:29:05;97811.31;;;12.06;82.12
9139;BME280;4604;48.616;9.548;2023-02-18T01:31:32;97810.25;;;11.97;81.61
9139;BME280;4604;48.616;9.548;2023-02-18T01:34:00;97804.09;;;12.08;80.67
9139;BME280;4604;48.616;9.548;2023-02-18T01:36:27;97790.06;;;11.96;80.49
9139;BME280;4604;48.616;9.548;2023-02-18T01:38:54;97816.34;;;12.09;79.50
9139;BME280;4604;48.616;9.548;2023-02-18T01:41:20;97810.25;;;11.97;79.93
9139;BME280;4604;48.616;9.548;2023-02-18T01:43:47;97803.38;;;12.06;79.67
9139;BME280;4604;48.616;9.548;2023-02-18T01:46:16;97795.63;;;11.93;79.31
9139;BME280;4604;48.616;9.548;2023-02-18T01:48:47;97798.84;;;11.96;79.91
9139;BME280;4604;48.616;9.548;2023-02-18T01:51:20;97799.06;;;12.05;80.56
9139;BME280;4604;48.616;9.548;2023-02-18T01:53:51;97802.00;;;11.90;81.74
9139;BME280;4604;48.616;9.548;2023-02-18T01:56:25;97783.25;;;11.93;81.80
9139;BME280;4604;48.616;9.548;2023-02-18T01:58:54;97782.72;;;11.99;80.29
9139;BME280;4604;48.616;9.548;2023-02-18T02:01:22;97793.47;;;11.87;81.10
9139;BME280;4604;48.616;9.548;2023-02-18T02:03:49;97767.03;;;11.87;82.12
9139;BME280;4604;48.616;9.548;2023-02-18T02:06:19;97772.84;;;12.02;81.55
9139;BME280;4604;48.616;9.548;2023-02-18T02:08:48;97785.84;;;12.05;80.96
9139;BME280;4604;48.616;9.548;2023-02-18T02:11:38;97784.44;;;11.89;82.11
9139;BME280;4604;48.616;9.548;2023-02-18T02:14:17;97787.31;;;11.97;82.04
9139;BME280;4604;48.616;9.548;2023-02-18T02:16:54;97788.91;;;11.89;82.34
9139;BME280;4604;48.616;9.548;2023-02-18T02:20:09;97791.50;;;12.00;81.38
9139;BME280;4604;48.616;9.548;2023-02-18T02:23:17;97794.69;;;11.83;82.19
9139;BME280;4604;48.616;9.548;2023-02-18T02:26:14;97757.16;;;11.89;81.59
9139;BME280;4604;48.616;9.548;2023-02-18T02:32:02;97771.38;;;11.88;82.31
9139;BME280;4604;48.616;9.548;2023-02-18T02:34:49;97783.13;;;11.95;81.69
9139;BME280;4604;48.616;9.548;2023-02-18T02:37:21;97770.28;;;11.90;81.77
9139;BME280;4604;48.616;9.548;2023-02-18T02:39:59;97768.38;;;11.70;82.45
9139;BME280;4604;48.616;9.548;2023-02-18T02:42:36;97777.75;;;11.74;81.71
9139;BME280;4604;48.616;9.548;2023-02-18T02:45:10;97763.03;;;11.92;80.54
9139;BME280;4604;48.616;9.548;2023-02-18T02:47:48;97750.78;;;11.91;81.46
9139;BME280;4604;48.616;9.548;2023-02-18T02:50:19;97763.44;;;11.76;81.06
9139;BME280;4604;48.616;9.548;2023-02-18T02:52:54;97760.66;;;11.78;81.42
9139;BME280;4604;48.616;9.548;2023-02-18T02:55:23;97771.94;;;11.80;81.48
9139;BME280;4604;48.616;9.548;2023-02-18T02:57:52;97760.63;;;11.89;80.14
9139;BME280;4604;48.616;9.548;2023-02-18T03:00:23;97758.97;;;11.77;81.29
9139;BME280;4604;48.616;9.548;2023-02-18T03:03:16;97759.19;;;11.85;80.89
9139;BME280;4604;48.616;9.548;2023-02-18T03:05:54;97750.84;;;11.69;82.25
9139;BME280;4604;48.616;9.548;2023-02-18T03:08:32;97768.84;;;11.75;81.96
9139;BME280;4604;48.616;9.548;2023-02-18T03:11:04;97746.31;;;11.92;81.09
9139;BME280;4604;48.616;9.548;2023-02-18T03:13:43;97747.69;;;11.75;82.28
9139;BME280;4604;48.616;9.548;2023-02-18T03:16:22;97740.13;;;11.70;82.99
9139;BME280;4604;48.616;9.548;2023-02-18T03:18:57;97755.75;;;11.73;81.89
9139;BME280;4604;48.616;9.548;2023-02-18T03:21:29;97746.59;;;11.77;80.40
9139;BME280;4604;48.616;9.548;2023-02-18T03:23:59;97760.91;;;11.75;80.95
9139;BME280;4604;48.616;9.548;2023-02-18T03:26:29;97747.44;;;11.78;80.38
9139;BME280;4604;48.616;9.548;2023-02-18T03:28:59;97750.56;;;11.83;80.95
9139;BME280;4604;48.616;9.548;2023-02-18T03:31:28;97764.25;;;11.77;81.14
9139;BME280;4604;48.616;9.548;2023-02-18T03:34:00;97744.66;;;11.91;80.49
9139;BME280;4604;48.616;9.548;2023-02-18T03:36:31;97737.50;;;12.03;79.46
9139;BME280;4604;48.616;9.548;2023-02-18T03:39:00;97740.97;;;12.03;79.27
9139;BME280;4604;48.616;9.548;2023-02-18T03:41:28;97737.25;;;12.06;79.21
9139;BME280;4604;48.616;9.548;2023-02-18T03:43:58;97728.41;;;11.84;80.04
9139;BME280;4604;48.616;9.548;2023-02-18T03:46:26;97724.31;;;11.80;80.23
9139;BME280;4604;48.616;9.548;2023-02-18T03:48:53;97725.53;;;11.87;80.04
9139;BME280;4604;48.616;9.548;2023-02-18T03:51:20;97715.41;;;11.92;79.22
9139;BME280;4604;48.616;9.548;2023-02-18T03:53:48;97717.81;;;11.95;78.66
9139;BME280;4604;48.616;9.548;2023-02-18T03:56:15;97727.34;;;11.87;79.77
9139;BME280;4604;48.616;9.548;2023-02-18T03:58:42;97713.94;;;11.99;78.99
9139;BME280;4604;48.616;9.548;2023-02-18T04:01:09;97712.41;;;11.86;78.71
9139;BME280;4604;48.616;9.548;2023-02-18T04:03:35;97713.75;;;11.91;76.53
9139;BME280;4604;48.616;9.548;2023-02-18T04:06:02;97704.59;;;11.95;75.34
9139;BME280;4604;48.616;9.548;2023-02-18T04:08:29;97723.41;;;12.02;74.98
9139;BME280;4604;48.616;9.548;2023-02-18T04:10:57;97715.94;;;12.07;74.35
9139;BME280;4604;48.616;9.548;2023-02-18T04:13:24;97742.88;;;12.12;74.89
9139;BME280;4604;48.616;9.548;2023-02-18T04:15:51;97752.84;;;12.09;74.84
9139;BME280;4604;48.616;9.548;2023-02-18T04:18:18;97740.91;;;11.93;76.09
9139;BME280;4604;48.616;9.548;2023-02-18T04:20:44;97723.69;;;11.99;75.73
9139;BME280;4604;48.616;9.548;2023-02-18T04:23:11;97722.06;;;11.87;75.79
9139;BME280;4604;48.616;9.548;2023-02-18T04:25:38;97738.25;;;11.93;76.13
9139;BME280;4604;48.616;9.548;2023-02-18T04:28:06;97740.69;;;11.85;76.64
9139;BME280;4604;48.616;9.548;2023-02-18T04:30:35;97731.69;;;11.88;76.66
9139;BME280;4604;48.616;9.548;2023-02-18T04:33:02;97727.69;;;11.82;76.22
9139;BME280;4604;48.616;9.548;2023-02-18T04:35:28;97733.13;;;11.81;76.80
9139;BME280;4604;48.616;9.548;2023-02-18T04:37:55;97737.66;;;11.90;76.20
9139;BME280;4604;48.616;9.548;2023-02-18T04:40:22;97723.50;;;11.91;76.59
9139;BME280;4604;48.616;9.548;2023-02-18T04:42:49;97723.94;;;11.85;77.17
9139;BME280;4604;48.616;9.548;2023-02-18T04:45:17;97721.44;;;11.83;77.11
9139;BME280;4604;48.616;9.548;2023-02-18T04:47:44;97727.69;;;11.82;77.51
9139;BME280;4604;48.616;9.548;2023-02-18T04:50:11;97729.75;;;11.78;77.36
9139;BME280;4604;48.616;9.548;2023-02-18T04:52:37;97736.25;;;11.74;77.89
9139;BME280;4604;48.616;9.548;2023-02-18T04:55:04;97734.28;;;11.55;79.12
9139;BME280;4604;48.616;9.548;2023-02-18T04:57:31;97735.16;;;11.56;79.54
9139;BME280;4604;48.616;9.548;2023-02-18T04:59:58;97736.09;;;11.55;79.61
9139;BME280;4604;48.616;9.548;2023-02-18T05:02:26;97732.50;;;11.56;80.04
9139;BME280;4604;48.616;9.548;2023-02-18T05:04:53;97723.13;;;11.52;81.38
9139;BME280;4604;48.616;9.548;2023-02-18T05:07:19;97728.50;;;11.62;80.67
9139;BME280;4604;48.616;9.548;2023-02-18T05:09:46;97726.13;;;11.59;81.41
9139;BME280;4604;48.616;9.548;2023-02-18T05:12:12;97729.97;;;11.54;81.79
9139;BME280;4604;48.616;9.548;2023-02-18T05:14:39;97721.84;;;11.46;83.10
9139;BME280;4604;48.616;9.548;2023-02-18T05:17:05;97718.84;;;11.72;82.41
9139;BME280;4604;48.616;9.548;2023-02-18T05:19:34;97732.34;;;11.69;82.23
9139;BME280;4604;48.616;9.548;2023-02-18T05:22:00;97730.94;;;11.53;83.67
9139;BME280;4604;48.616;9.548;2023-02-18T05:24:27;97727.13;;;11.46;84.74
9139;BME280;4604;48.616;9.548;2023-02-18T05:26:53;97734.53;;;11.52;84.57
9139;BME280;4604;48.616;9.548;2023-02-18T05:29:20;97724.84;;;11.42;85.74
9139;BME280;4604;48.616;9.548;2023-02-18T05:31:47;97737.72;;;11.35;86.29
9139;BME280;4604;48.616;9.548;2023-02-18T05:34:13;97736.16;;;11.32;87.57
9139;BME280;4604;48.616;9.548;2023-02-18T05:36:41;97721.03;;;11.34;87.73
9139;BME280;4604;48.616;9.548;2023-02-18T05:39:08;97723.78;;;11.33;88.14
9139;BME280;4604;48.616;9.548;2023-02-18T05:41:35;97721.50;;;11.40;88.07
9139;BME280;4604;48.616;9.548;2023-02-18T05:44:01;97721.03;;;11.34;88.79
9139;BME280;4604;48.616;9.548;2023-02-18T05:46:45;97716.94;;;11.42;88.55
9139;BME280;4604;48.616;9.548;2023-02-18T05:49:12;97722.22;;;11.42;88.20
9139;BME280;4604;48.616;9.548;2023-02-18T05:51:40;97719.94;;;11.37;88.89
9139;BME280;4604;48.616;9.548;2023-02-18T05:54:07;97712.13;;;11.35;88.99
9139;BME280;4604;48.616;9.548;2023-02-18T05:56:33;97715.94;;;11.43;88.39
9139;BME280;4604;48.616;9.548;2023-02-18T05:59:00;97720.59;;;11.50;87.56
9139;BME280;4604;48.616;9.548;2023-02-18T06:01:26;97721.22;;;11.43;88.60
9139;BME280;4604;48.616;9.548;2023-02-18T06:03:53;97711.03;;;11.38;88.75
9139;BME280;4604;48.616;9.548;2023-02-18T06:06:20;97711.19;;;11.37;89.15
9139;BME280;4604;48.616;9.548;2023-02-18T06:08:48;97719.66;;;11.51;88.12
9139;BME280;4604;48.616;9.548;2023-02-18T06:11:15;97723.59;;;11.57;87.12
9139;BME280;4604;48.616;9.548;2023-02-18T06:13:41;97719.50;;;11.53;87.72
9139;BME280;4604;48.616;9.548;2023-02-18T06:16:08;97729.06;;;11.44;88.67
9139;BME280;4604;48.616;9.548;2023-02-18T06:18:34;97700.34;;;11.40;88.74
9139;BME280;4604;48.616;9.548;2023-02-18T06:21:01;97719.94;;;11.37;89.47
9139;BME280;4604;48.616;9.548;2023-02-18T06:23:28;97716.94;;;11.42;89.33
9139;BME280;4604;48.616;9.548;2023-02-18T06:25:56;97697.66;;;11.51;88.55
9139;BME280;4604;48.616;9.548;2023-02-18T06:28:22;97704.81;;;11.60;87.08
9139;BME280;4604;48.616;9.548;2023-02-18T06:30:49;97712.56;;;11.52;88.03
9139;BME280;4604;48.616;9.548;2023-02-18T06:33:16;97708.38;;;11.49;87.93
9139;BME280;4604;48.616;9.548;2023-02-18T06:35:51;97704.88;;;11.49;87.96
9139;BME280;4604;48.616;9.548;2023-02-18T06:38:19;97731.69;;;11.44;87.68
9139;BME280;4604;48.616;9.548;2023-02-18T06:40:46;97714.75;;;11.47;87.33
9139;BME280;4604;48.616;9.548;2023-02-18T06:43:14;97705.72;;;11.49;87.08
9139;BME280;4604;48.616;9.548;2023-02-18T06:45:41;97716.66;;;11.56;87.16
9139;BME280;4604;48.616;9.548;2023-02-18T06:48:08;97712.91;;;11.59;86.45
9139;BME280;4604;48.616;9.548;2023-02-18T06:50:34;97730.16;;;11.63;85.97
9139;BME280;4604;48.616;9.548;2023-02-18T06:53:01;97725.66;;;11.53;86.99
9139;BME280;4604;48.616;9.548;2023-02-18T06:55:27;97712.66;;;11.50;87.20
9139;BME280;4604;48.616;9.548;2023-02-18T06:57:54;97712.72;;;11.71;85.95
9139;BME280;4604;48.616;9.548;2023-02-18T07:00:22;97701.25;;;11.82;84.73
9139;BME280;4604;48.616;9.548;2023-02-18T07:02:49;97708.38;;;11.70;85.83
9139;BME280;4604;48.616;9.548;2023-02-18T07:05:16;97711.44;;;11.66;86.07
9139;BME280;4604;48.616;9.548;2023-02-18T07:07:42;97716.84;;;11.64;85.98
9139;BME280;4604;48.616;9.548;2023-02-18T07:10:09;97713.81;;;11.69;84.99
9139;BME280;4604;48.616;9.548;2023-02-18T07:12:36;97731.16;;;11.62;85.29
9139;BME280;4604;48.616;9.548;2023-02-18T07:15:03;97713.03;;;11.57;86.21
9139;BME280;4604;48.616;9.548;2023-02-18T07:17:31;97722.13;;;11.64;85.99
9139;BME280;4604;48.616;9.548;2023-02-18T07:19:58;97711.47;;;11.87;84.87
9139;BME280;4604;48.616;9.548;2023-02-18T07:22:25;97710.38;;;11.57;86.96
9139;BME280;4604;48.616;9.548;2023-02-18T07:24:52;97707.84;;;11.55;86.33
9139;BME280;4604;48.616;9.548;2023-02-18T07:27:19;97703.88;;;11.61;86.58
9139;BME280;4604;48.616;9.548;2023-02-18T07:29:46;97704.78;;;11.71;86.26
9139;BME280;4604;48.616;9.548;2023-02-18T07:32:15;97703.00;;;11.61;86.82
9139;BME280;4604;48.616;9.548;2023-02-18T07:34:43;97696.78;;;11.62;86.77
9139;BME280;4604;48.616;9.548;2023-02-18T07:37:11;97699.16;;;11.65;86.80
9139;BME280;4604;48.616;9.548;2023-02-18T07:39:39;97697.06;;;11.79;85.82
9139;BME280;4604;48.616;9.548;2023-02-18T07:42:06;97702.53;;;11.67;85.97
9139;BME280;4604;48.616;9.548;2023-02-18T07:44:33;97698.91;;;11.68;85.55
9139;BME280;4604;48.616;9.548;2023-02-18T07:47:00;97689.66;;;11.73;86.06
9139;BME280;4604;48.616;9.548;2023-02-18T07:49:27;97693.56;;;11.79;84.98
9139;BME280;4604;48.616;9.548;2023-02-18T07:51:55;97686.09;;;11.84;84.73
9139;BME280;4604;48.616;9.548;2023-02-18T07:54:22;97678.47;;;11.70;83.94
9139;BME280;4604;48.616;9.548;2023-02-18T07:56:49;97693.69;;;11.77;84.53
9139;BME280;4604;48.616;9.548;2023-02-18T07:59:16;97696.66;;;11.95;83.73
9139;BME280;4604;48.616;9.548;2023-02-18T08:01:42;97701.63;;;11.77;84.87
9139;BME280;4604;48.616;9.548;2023-02-18T08:04:09;97685.06;;;11.75;84.27
9139;BME280;4604;48.616;9.548;2023-02-18T08:06:38;97690.94;;;11.79;83.51
9139;BME280;4604;48.616;9.548;2023-02-18T08:09:07;97684.47;;;11.72;83.64
9139;BME280;4604;48.616;9.548;2023-02-18T08:11:34;97690.75;;;11.92;82.94
9139;BME280;4604;48.616;9.548;2023-02-18T08:14:01;97682.25;;;11.88;82.63
9139;BME280;4604;48.616;9.548;2023-02-18T08:16:27;97687.44;;;11.78;83.22
9139;BME280;4604;48.616;9.548;2023-02-18T08:18:54;97681.16;;;11.91;82.74
9139;BME280;4604;48.616;9.548;2023-02-18T08:21:22;97672.69;;;11.97;82.26
9139;BME280;4604;48.616;9.548;2023-02-18T08:23:50;97675.00;;;12.11;81.43
9139;BME280;4604;48.616;9.548;2023-02-18T08:26:18;97672.31;;;12.02;81.33
9139;BME280;4604;48.616;9.548;2023-02-18T08:28:46;97681.00;;;11.92;82.10
9139;BME280;4604;48.616;9.548;2023-02-18T08:31:18;97678.69;;;11.99;81.69
9139;BME280;4604;48.616;9.548;2023-02-18T08:33:45;97675.78;;;12.02;81.17
9139;BME280;4604;48.616;9.548;2023-02-18T08:36:12;97682.25;;;12.09;80.27
9139;BME280;4604;48.616;9.548;2023-02-18T08:38:39;97683.09;;;11.89;81.51
9139;BME280;4604;48.616;9.548;2023-02-18T08:41:07;97678.19;;;12.05;80.26
9139;BME280;4604;48.616;9.548;2023-02-18T08:43:36;97700.19;;;12.06;80.05
9139;BME280;4604;48.616;9.548;2023-02-18T08:46:03;97681.09;;;12.02;80.31
9139;BME280;4604;48.616;9.548;2023-02-18T08:48:30;97689.28;;;11.99;80.43
9139;BME280;4604;48.616;9.548;2023-02-18T08:50:56;97689.88;;;12.03;80.08
9139;BME280;4604;48.616;9.548;2023-02-18T08:53:23;97679.31;;;12.03;80.50
9139;BME280;4604;48.616;9.548;2023-02-18T08:55:50;97683.56;;;12.15;80.18
9139;BME280;4604;48.616;9.548;2023-02-18T08:58:17;97683.16;;;12.19;79.39
9139;BME280;4604;48.616;9.548;2023-02-18T09:00:45;97678.69;;;12.20;79.45
9139;BME280;4604;48.616;9.548;2023-02-18T09:03:13;97670.63;;;12.21;78.69
9139;BME280;4604;48.616;9.548;2023-02-18T09:05:40;97682.97;;;12.11;79.04
9139;BME280;4604;48.616;9.548;2023-02-18T09:08:06;97676.13;;;12.09;78.42
9139;BME280;4604;48.616;9.548;2023-02-18T09:10:33;97678.75;;;12.09;79.13
9139;BME280;4604;48.616;9.548;2023-02-18T09:13:00;97675.91;;;12.21;78.63
9139;BME280;4604;48.616;9.548;2023-02-18T09:15:26;97667.84;;;12.02;79.51
9139;BME280;4604;48.616;9.548;2023-02-18T09:17:54;97660.28;;;12.18;78.70
9139;BME280;4604;48.616;9.548;2023-02-18T09:20:21;97678.44;;;12.02;79.38
9139;BME280;4604;48.616;9.548;2023-02-18T09:22:47;97658.69;;;12.27;78.19
9139;BME280;4604;48.616;9.548;2023-02-18T09:25:14;97655.59;;;12.22;77.88
9139;BME280;4604;48.616;9.548;2023-02-18T09:27:41;97651.00;;;12.24;77.95
9139;BME280;4604;48.616;9.548;2023-02-18T09:30:08;97642.88;;;12.47;76.57
9139;BME280;4604;48.616;9.548;2023-02-18T09:32:35;97657.47;;;12.41;77.64
9139;BME280;4604;48.616;9.548;2023-02-18T09:35:04;97648.66;;;12.31;77.96
9139;BME280;4604;48.616;9.548;2023-02-18T09:37:30;97650.59;;;12.29;78.37
9139;BME280;4604;48.616;9.548;2023-02-18T09:39:57;97638.16;;;12.19;79.02
9139;BME280;4604;48.616;9.548;2023-02-18T09:42:29;97635.13;;;12.24;78.99
9139;BME280;4604;48.616;9.548;2023-02-18T09:44:59;97633.69;;;12.51;78.32
9139;BME280;4604;48.616;9.548;2023-02-18T09:47:32;97640.09;;;12.48;77.06
9139;BME280;4604;48.616;9.548;2023-02-18T09:50:06;97633.91;;;12.69;76.57
9139;BME280;4604;48.616;9.548;2023-02-18T09:52:35;97635.38;;;12.52;76.94
9139;BME280;4604;48.616;9.548;2023-02-18T09:55:16;97633.59;;;12.31;78.32
9139;BME280;4604;48.616;9.548;2023-02-18T09:57:44;97609.66;;;12.33;77.95
9139;BME280;4604;48.616;9.548;2023-02-18T10:00:14;97622.50;;;12.37;79.13
9139;BME280;4604;48.616;9.548;2023-02-18T10:02:51;97608.25;;;12.29;78.57
9139;BME280;4604;48.616;9.548;2023-02-18T10:05:21;97608.84;;;12.32;78.90
9139;BME280;4604;48.616;9.548;2023-02-18T10:07:50;97603.19;;;12.47;77.72
9139;BME280;4604;48.616;9.548;2023-02-18T10:13:03;97607.22;;;12.60;77.10
9139;BME280;4604;48.616;9.548;2023-02-18T10:15:32;97618.28;;;12.66;76.96
9139;BME280;4604;48.616;9.548;2023-02-18T10:17:59;97612.41;;;12.62;76.94
9139;BME280;4604;48.616;9.548;2023-02-18T10:20:30;97607.91;;;12.53;77.19
9139;BME280;4604;48.616;9.548;2023-02-18T10:23:00;97615.63;;;12.66;77.56
9139;BME280;4604;48.616;9.548;2023-02-18T10:25:30;97623.72;;;12.64;77.61
9139;BME280;4604;48.616;9.548;2023-02-18T10:27:59;97627.56;;;12.50;78.47
9139;BME280;4604;48.616;9.548;2023-02-18T10:30:30;97634.28;;;12.54;78.38
9139;BME280;4604;48.616;9.548;2023-02-18T10:33:06;97629.94;;;12.53;79.55
9139;BME280;4604;48.616;9.548;2023-02-18T10:35:46;97642.84;;;12.37;80.50
9139;BME280;4604;48.616;9.548;2023-02-18T10:38:22;97618.84;;;12.29;80.83
9139;BME280;4604;48.616;9.548;2023-02-18T10:40:58;97625.16;;;12.37;80.94
9139;BME280;4604;48.616;9.548;2023-02-18T10:43:36;97615.22;;;12.30;81.53
9139;BME280;4604;48.616;9.548;2023-02-18T10:46:13;97628.91;;;12.35;81.02
9139;BME280;4604;48.616;9.548;2023-02-18T10:48:58;97635.81;;;12.26;82.14
9139;BME280;4604;48.616;9.548;2023-02-18T10:51:32;97637.78;;;12.24;82.34
9139;BME280;4604;48.616;9.548;2023-02-18T10:54:00;97649.75;;;12.28;82.67
9139;BME280;4604;48.616;9.548;2023-02-18T10:56:36;97640.59;;;12.32;82.56
9139;BME280;4604;48.616;9.548;2023-02-18T10:59:12;97631.22;;;12.28;82.94
9139;BME280;4604;48.616;9.548;2023-02-18T11:01:39;97636.97;;;12.33;82.83
9139;BME280;4604;48.616;9.548;2023-02-18T11:04:12;97638.03;;;12.52;82.33
9139;BME280;4604;48.616;9.548;2023-02-18T11:06:41;97647.03;;;12.39;81.89
9139;BME280;4604;48.616;9.548;2023-02-18T11:09:24;97644.91;;;12.33;82.77
9139;BME280;4604;48.616;9.548;2023-02-18T11:11:58;97648.25;;;12.35;81.07
9139;BME280;4604;48.616;9.548;2023-02-18T11:14:36;97634.06;;;12.36;81.35
9139;BME280;4604;48.616;9.548;2023-02-18T11:17:11;97611.25;;;12.45;80.76
9139;BME280;4604;48.616;9.548;2023-02-18T11:19:40;97625.94;;;12.59;80.28
9139;BME280;4604;48.616;9.548;2023-02-18T11:22:14;97616.88;;;12.61;79.55
9139;BME280;4604;48.616;9.548;2023-02-18T11:24:41;97627.91;;;12.67;80.48
9139;BME280;4604;48.616;9.548;2023-02-18T11:27:19;97601.47;;;12.86;77.05
9139;BME280;4604;48.616;9.548;2023-02-18T11:29:49;97617.44;;;12.65;77.39
9139;BME280;4604;48.616;9.548;2023-02-18T11:32:17;97607.50;;;12.57;78.64
9139;BME280;4604;48.616;9.548;2023-02-18T11:34:44;97595.69;;;12.61;78.81
9139;BME280;4604;48.616;9.548;2023-02-18T11:37:17;97604.63;;;12.70;78.11
9139;BME280;4604;48.616;9.548;2023-02-18T11:39:46;97602.72;;;12.92;77.12
9139;BME280;4604;48.616;9.548;2023-02-18T11:42:15;97577.84;;;12.63;76.86
9139;BME280;4604;48.616;9.548;2023-02-18T11:44:49;97594.19;;;12.69;77.03
9139;BME280;4604;48.616;9.548;2023-02-18T11:47:24;97593.59;;;12.65;77.27
9139;BME280;4604;48.616;9.548;2023-02-18T11:50:13;97588.47;;;12.73;76.63
9139;BME280;4604;48.616;9.548;2023-02-18T11:52:43;97596.56;;;12.81;76.83
9139;BME280;4604;48.616;9.548;2023-02-18T11:55:16;97578.44;;;12.87;76.14
9139;BME280;4604;48.616;9.548;2023-02-18T11:57:49;97582.81;;;12.97;75.52
9139;BME280;4604;48.616;9.548;2023-02-18T12:00:22;97588.50;;;13.02;75.42
9139;BME280;4604;48.616;9.548;2023-02-18T12:02:50;97574.16;;;12.95;74.79
9139;BME280;4604;48.616;9.548;2023-02-18T12:05:21;97551.41;;;13.02;73.52
9139;BME280;4604;48.616;9.548;2023-02-18T12:07:51;97564.91;;;12.90;74.01
9139;BME280;4604;48.616;9.548;2023-02-18T12:10:26;97553.91;;;13.04;73.36
9139;BME280;4604;48.616;9.548;2023-02-18T12:12:59;97572.44;;;12.94;73.62
9139;BME280;4604;48.616;9.548;2023-02-18T12:15:36;97572.44;;;12.94;73.46
9139;BME280;4604;48.616;9.548;2023-02-18T12:18:32;97571.09;;;13.00;73.55
9139;BME280;4604;48.616;9.548;2023-02-18T12:21:10;97576.06;;;12.83;73.32
9139;BME280;4604;48.616;9.548;2023-02-18T12:23:49;97570.34;;;12.78;73.97
9139;BME280;4604;48.616;9.548;2023-02-18T12:26:26;97549.88;;;12.90;73.06
9139;BME280;4604;48.616;9.548;2023-02-18T12:29:08;97556.00;;;12.81;73.18
9139;BME280;4604;48.616;9.548;2023-02-18T12:31:51;97571.47;;;12.85;73.75
9139;BME280;4604;48.616;9.548;2023-02-18T12:34:31;97566.31;;;12.74;73.41
9139;BME280;4604;48.616;9.548;2023-02-18T12:37:12;97548.31;;;12.68;73.91
9139;BME280;4604;48.616;9.548;2023-02-18T12:40:01;97548.75;;;12.73;73.71
9139;BME280;4604;48.616;9.548;2023-02-18T12:42:42;97565.34;;;12.75;73.56
9139;BME280;4604;48.616;9.548;2023-02-18T12:45:31;97568.66;;;12.77;73.41
9139;BME280;4604;48.616;9.548;2023-02-18T12:48:24;97538.69;;;12.67;72.83
9139;BME280;4604;48.616;9.548;2023-02-18T12:51:08;97523.06;;;12.54;73.30
9139;BME280;4604;48.616;9.548;2023-02-18T12:53:48;97541.50;;;12.66;73.51
9139;BME280;4604;48.616;9.548;2023-02-18T12:56:43;97505.63;;;12.52;73.53
9139;BME280;4604;48.616;9.548;2023-02-18T12:59:27;97531.97;;;12.53;73.26
9139;BME280;4604;48.616;9.548;2023-02-18T13:02:04;97542.56;;;12.63;73.54
9139;BME280;4604;48.616;9.548;2023-02-18T13:04:45;97549.97;;;12.59;73.35
9139;BME280;4604;48.616;9.548;2023-02-18T13:07:36;97540.38;;;12.68;72.39
9139;BME280;4604;48.616;9.548;2023-02-18T13:10:27;97533.81;;;12.72;72.68
9139;BME280;4604;48.616;9.548;2023-02-18T13:13:08;97502.19;;;12.61;71.79
9139;BME280;4604;48.616;9.548;2023-02-18T13:15:38;97521.69;;;12.79;71.34
9139;BME280;4604;48.616;9.548;2023-02-18T13:18:10;97515.56;;;12.69;71.83
9139;BME280;4604;48.616;9.548;2023-02-18T13:20:40;97515.97;;;12.74;71.89
9139;BME280;4604;48.616;9.548;2023-02-18T13:23:15;97503.44;;;12.96;71.55
9139;BME280;4604;48.616;9.548;2023-02-18T13:25:44;97498.44;;;13.02;71.05
9139;BME280;4604;48.616;9.548;2023-02-18T13:28:18;97478.88;;;13.03;70.37
9139;BME280;4604;48.616;9.548;2023-02-18T13:30:49;97502.88;;;13.02;70.70
9139;BME280;4604;48.616;9.548;2023-02-18T13:33:25;97507.34;;;12.92;70.02
9139;BME280;4604;48.616;9.548;2023-02-18T13:35:56;97495.38;;;12.88;70.36
9139;BME280;4604;48.616;9.548;2023-02-18T13:38:41;97494.09;;;12.92;70.88
9139;BME280;4604;48.616;9.548;2023-02-18T13:41:15;97480.84;;;13.01;70.55
9139;BME280;4604;48.616;9.548;2023-02-18T13:43:43;97466.88;;;12.99;70.37
9139;BME280;4604;48.616;9.548;2023-02-18T13:46:12;97478.88;;;13.03;69.97